createdAt,value
2023-05-01T00:00:56.322Z,62.55
2023-05-01T00:03:58.779Z,62.93
2023-05-01T00:07:00.769Z,63.17
2023-05-01T00:10:02.385Z,63.39
2023-05-01T00:13:04.539Z,63.51
2023-05-01T00:16:10.123Z,63.67
2023-05-01T00:19:12.652Z,63.96
2023-05-01T00:22:14.430Z,64.10
2023-05-01T00:25:16.187Z,65.51
2023-05-01T00:28:20.901Z,64.76
2023-05-01T00:31:24.853Z,64.58
2023-05-01T00:34:30.518Z,64.44
2023-05-01T00:37:32.258Z,64.68
2023-05-01T00:40:42.032Z,65.56
2023-05-01T00:43:43.678Z,65.28
2023-05-01T00:46:45.290Z,64.90
2023-05-01T00:49:46.958Z,65.53
2023-05-01T00:52:48.663Z,64.81
2023-05-01T00:55:50.223Z,65.78
2023-05-01T00:58:51.848Z,65.62
2023-05-01T01:01:55.643Z,65.83
2023-05-01T01:04:58.556Z,65.44
2023-05-01T01:08:15.883Z,65.70
2023-05-01T01:11:42.015Z,66.32
2023-05-01T01:15:06.710Z,66.36
2023-05-01T01:18:10.188Z,65.44
2023-05-01T01:21:13.130Z,65.38
2023-05-01T01:24:33.742Z,66.09
2023-05-01T01:28:13.942Z,65.90
2023-05-01T01:31:22.208Z,66.06
2023-05-01T01:34:36.492Z,65.89
2023-05-01T01:37:47.328Z,65.77
2023-05-01T01:41:11.470Z,65.95
2023-05-01T01:44:19.522Z,65.62
2023-05-01T01:47:22.502Z,65.61
2023-05-01T01:50:26.481Z,65.85
2023-05-01T01:53:30.105Z,65.79
2023-05-01T01:56:33.328Z,65.49
2023-05-01T01:59:35.371Z,65.18
2023-05-01T02:02:38.777Z,65.35
2023-05-01T02:05:42.399Z,65.60
2023-05-01T02:08:44.617Z,65.31
2023-05-01T02:11:46.831Z,65.74
2023-05-01T02:14:48.807Z,65.98
2023-05-01T02:17:51.333Z,65.66
2023-05-01T02:20:53.556Z,65.99
2023-05-01T02:23:55.556Z,66.22
2023-05-01T02:27:03.137Z,66.33
2023-05-01T02:30:05.382Z,66.39
2023-05-01T02:33:07.985Z,66.35
2023-05-01T02:36:09.723Z,66.41
2023-05-01T02:39:11.260Z,66.35
2023-05-01T02:42:13.358Z,66.39
2023-05-01T02:45:20.635Z,66.73
2023-05-01T02:48:25.770Z,66.49
2023-05-01T02:51:28.212Z,66.76
2023-05-01T02:54:31.202Z,66.76
2023-05-01T02:57:33.433Z,66.66
2023-05-01T03:00:35.047Z,66.81
2023-05-01T03:03:37.010Z,66.87
2023-05-01T03:06:38.899Z,67.15
2023-05-01T03:09:40.485Z,66.94
2023-05-01T03:12:42.144Z,66.92
2023-05-01T03:15:44.485Z,67.16
2023-05-01T03:18:46.112Z,67.10
2023-05-01T03:21:47.714Z,67.35
2023-05-01T03:24:49.321Z,67.66
2023-05-01T03:27:52.144Z,67.57
2023-05-01T03:30:55.356Z,67.39
2023-05-01T03:33:56.983Z,67.81
2023-05-01T03:36:58.787Z,67.87
2023-05-01T03:40:00.341Z,67.94
2023-05-01T03:43:01.981Z,67.84
2023-05-01T03:46:03.595Z,67.66
2023-05-01T03:49:05.240Z,67.77
2023-05-01T03:52:06.881Z,67.87
2023-05-01T03:55:09.018Z,67.46
2023-05-01T03:58:10.831Z,67.36
2023-05-01T04:01:12.389Z,67.68
2023-05-01T04:04:14.199Z,67.27
2023-05-01T04:07:15.982Z,67.12
2023-05-01T04:10:17.664Z,66.91
2023-05-01T04:13:19.390Z,67.69
2023-05-01T04:16:20.980Z,67.61
2023-05-01T04:19:22.646Z,68.54
2023-05-01T04:22:24.276Z,68.95
2023-05-01T04:25:26.182Z,68.98
2023-05-01T04:28:27.866Z,69.44
2023-05-01T04:31:29.552Z,69.85
2023-05-01T04:34:31.190Z,69.99
2023-05-01T04:37:32.861Z,69.63
2023-05-01T04:40:34.652Z,69.41
2023-05-01T04:43:36.265Z,69.86
2023-05-01T04:46:37.961Z,69.50
2023-05-01T04:49:39.691Z,69.01
2023-05-01T04:52:41.243Z,68.58
2023-05-01T04:55:42.914Z,68.46
2023-05-01T04:58:44.897Z,67.82
2023-05-01T05:01:46.595Z,67.26
2023-05-01T05:04:48.807Z,67.32
2023-05-01T05:07:50.572Z,67.26
2023-05-01T05:10:57.549Z,66.91
2023-05-01T05:13:59.241Z,66.76
2023-05-01T05:17:00.995Z,66.31
2023-05-01T05:20:02.647Z,66.29
2023-05-01T05:23:04.275Z,66.06
2023-05-01T05:26:05.954Z,65.58
2023-05-01T05:29:07.730Z,65.14
2023-05-01T05:32:09.627Z,64.95
2023-05-01T05:35:11.351Z,64.84
2023-05-01T05:38:13.089Z,64.78
2023-05-01T05:41:14.776Z,64.28
2023-05-01T05:44:16.659Z,64.03
2023-05-01T05:47:18.360Z,63.99
2023-05-01T05:50:20.179Z,63.57
2023-05-01T05:53:24.973Z,62.97
2023-05-01T05:56:27.463Z,62.98
2023-05-01T05:59:29.137Z,62.50
2023-05-01T06:02:31.452Z,61.24
2023-05-01T06:05:33.452Z,60.61
2023-05-01T06:08:35.263Z,61.02
2023-05-01T06:11:36.851Z,61.44
2023-05-01T06:14:38.539Z,60.92
2023-05-01T06:17:40.152Z,59.52
2023-05-01T06:20:41.828Z,59.81
2023-05-01T06:23:43.548Z,60.65
2023-05-01T06:26:45.175Z,61.22
2023-05-01T06:29:46.788Z,61.23
2023-05-01T06:32:48.792Z,60.89
2023-05-01T06:35:50.878Z,60.51
2023-05-01T06:38:52.563Z,60.30
2023-05-01T06:41:54.263Z,59.89
2023-05-01T06:44:55.896Z,59.13
2023-05-01T06:47:57.573Z,58.31
2023-05-01T06:50:59.451Z,58.24
2023-05-01T06:54:01.035Z,57.38
2023-05-01T06:57:02.685Z,56.15
2023-05-01T07:00:05.020Z,55.89
2023-05-01T07:03:06.893Z,54.94
2023-05-01T07:06:08.609Z,54.91
2023-05-01T07:09:10.478Z,56.09
2023-05-01T07:12:12.117Z,55.08
2023-05-01T07:15:13.720Z,52.89
2023-05-01T07:18:15.357Z,54.43
2023-05-01T07:21:16.957Z,55.03
2023-05-01T07:24:18.509Z,54.69
2023-05-01T07:27:20.619Z,52.39
2023-05-01T07:30:22.265Z,52.32
2023-05-01T07:33:24.219Z,50.29
2023-05-01T07:36:25.949Z,49.29
2023-05-01T07:39:27.588Z,46.65
2023-05-01T07:42:29.307Z,45.96
2023-05-01T07:45:30.964Z,45.23
2023-05-01T07:48:32.720Z,46.28
2023-05-01T07:51:34.424Z,44.97
2023-05-01T07:54:36.018Z,43.30
2023-05-01T07:57:37.660Z,44.18
2023-05-01T08:00:39.264Z,44.43
2023-05-01T08:03:40.971Z,42.89
2023-05-01T08:06:42.749Z,41.59
2023-05-01T08:09:45.832Z,42.59
2023-05-01T08:12:47.506Z,40.82
2023-05-01T08:15:49.283Z,38.60
2023-05-01T08:18:50.901Z,40.25
2023-05-01T08:21:52.705Z,41.97
2023-05-01T08:24:54.333Z,41.71
2023-05-01T08:27:55.921Z,41.17
2023-05-01T08:30:57.571Z,40.61
2023-05-01T08:33:59.232Z,40.25
2023-05-01T08:37:00.913Z,41.62
2023-05-01T08:40:02.510Z,39.46
2023-05-01T08:43:04.747Z,40.54
2023-05-01T08:46:07.368Z,42.71
2023-05-01T08:49:09.541Z,40.39
2023-05-01T08:52:12.581Z,38.70
2023-05-01T08:55:15.491Z,39.50
2023-05-01T08:58:18.231Z,40.25
2023-05-01T09:01:20.566Z,38.37
2023-05-01T09:04:22.321Z,37.45
2023-05-01T09:07:24.678Z,38.06
2023-05-01T09:10:26.562Z,38.42
2023-05-01T09:13:28.500Z,38.84
2023-05-01T09:16:30.172Z,38.08
2023-05-01T09:19:31.859Z,36.79
2023-05-01T09:22:34.201Z,36.98
2023-05-01T09:25:35.917Z,36.52
2023-05-01T09:28:46.219Z,36.66
2023-05-01T09:31:47.911Z,35.90
2023-05-01T09:34:50.658Z,35.56
2023-05-01T09:37:57.167Z,35.95
2023-05-01T09:41:04.735Z,35.56
2023-05-01T09:44:17.984Z,34.85
2023-05-01T09:47:22.772Z,34.39
2023-05-01T09:50:35.062Z,36.71
2023-05-01T09:53:40.592Z,35.32
2023-05-01T09:56:47.152Z,34.42
2023-05-01T10:00:02.416Z,35.29
2023-05-01T10:03:13.811Z,36.81
2023-05-01T10:06:26.573Z,33.91
2023-05-01T10:09:29.499Z,31.83
2023-05-01T10:12:31.121Z,35.18
2023-05-01T10:15:38.676Z,36.69
2023-05-01T10:18:40.495Z,36.94
2023-05-01T10:21:42.128Z,36.15
2023-05-01T10:24:44.368Z,33.64
2023-05-01T10:27:46.364Z,33.10
2023-05-01T10:30:49.043Z,33.81
2023-05-01T10:33:50.617Z,31.66
2023-05-01T10:37:04.204Z,31.45
2023-05-01T10:40:40.438Z,31.84
2023-05-01T10:43:43.129Z,32.03
2023-05-01T10:46:44.778Z,31.48
2023-05-01T10:50:05.051Z,30.85
2023-05-01T10:53:12.582Z,32.10
2023-05-01T10:56:34.401Z,32.74
2023-05-01T11:00:04.215Z,31.37
2023-05-01T11:03:21.416Z,32.23
2023-05-01T11:06:23.604Z,31.52
2023-05-01T11:09:41.630Z,30.38
2023-05-01T11:12:46.376Z,30.82
2023-05-01T11:15:48.065Z,32.40
2023-05-01T11:18:49.709Z,30.58
2023-05-01T11:21:51.605Z,29.85
2023-05-01T11:24:53.216Z,28.39
2023-05-01T11:27:56.960Z,31.82
2023-05-01T11:30:59.644Z,30.62
2023-05-01T11:34:02.495Z,30.52
2023-05-01T11:37:04.069Z,29.82
2023-05-01T11:40:19.132Z,30.22
2023-05-01T11:43:20.924Z,29.47
2023-05-01T11:46:30.416Z,31.37
2023-05-01T11:49:32.165Z,30.54
2023-05-01T11:52:48.732Z,31.40
2023-05-01T11:55:50.406Z,29.52
2023-05-01T11:58:53.518Z,31.03
2023-05-01T12:01:55.535Z,29.77
2023-05-01T12:04:57.363Z,31.24
2023-05-01T12:08:11.525Z,32.01
2023-05-01T12:11:13.423Z,32.08
2023-05-01T12:14:15.685Z,32.30
2023-05-01T12:17:17.412Z,28.92
2023-05-01T12:20:34.696Z,28.42
2023-05-01T12:23:36.761Z,27.53
2023-05-01T12:26:38.584Z,27.30
2023-05-01T12:29:41.151Z,26.87
2023-05-01T12:32:42.753Z,28.21
2023-05-01T12:35:46.285Z,30.02
2023-05-01T12:39:05.364Z,30.32
2023-05-01T12:42:13.968Z,30.65
2023-05-01T12:45:15.714Z,30.59
2023-05-01T12:48:17.531Z,29.77
2023-05-01T12:51:20.471Z,26.84
2023-05-01T12:54:24.676Z,24.69
2023-05-01T12:57:26.270Z,26.87
2023-05-01T13:00:28.347Z,25.46
2023-05-01T13:03:31.352Z,26.85
2023-05-01T13:06:33.437Z,24.65
2023-05-01T13:09:35.105Z,23.96
2023-05-01T13:12:44.067Z,24.67
2023-05-01T13:15:45.797Z,25.94
2023-05-01T13:18:51.792Z,25.88
2023-05-01T13:21:53.765Z,24.67
2023-05-01T13:24:55.506Z,24.73
2023-05-01T13:27:57.125Z,24.89
2023-05-01T13:30:59.007Z,25.75
2023-05-01T13:34:01.101Z,25.60
2023-05-01T13:37:03.704Z,26.04
2023-05-01T13:40:06.425Z,25.06
2023-05-01T13:43:14.144Z,26.19
2023-05-01T13:46:17.334Z,24.26
2023-05-01T13:49:21.397Z,22.27
2023-05-01T13:52:23.134Z,25.04
2023-05-01T13:55:24.926Z,25.31
2023-05-01T13:58:28.950Z,25.83
2023-05-01T14:01:30.743Z,25.53
2023-05-01T14:04:35.453Z,22.46
2023-05-01T14:07:44.450Z,21.97
2023-05-01T14:10:46.064Z,24.17
2023-05-01T14:13:47.966Z,22.02
2023-05-01T14:16:51.108Z,22.58
2023-05-01T14:19:52.816Z,23.25
2023-05-01T14:22:54.419Z,22.42
2023-05-01T14:25:56.095Z,23.45
2023-05-01T14:28:57.764Z,23.53
2023-05-01T14:32:03.945Z,22.32
2023-05-01T14:35:09.505Z,21.64
2023-05-01T14:38:13.620Z,21.23
2023-05-01T14:41:17.341Z,21.57
2023-05-01T14:44:19.714Z,23.12
2023-05-01T14:47:21.389Z,23.30
2023-05-01T14:50:24.578Z,23.08
2023-05-01T14:53:26.480Z,21.07
2023-05-01T14:56:28.158Z,19.76
2023-05-01T14:59:29.868Z,19.60
2023-05-01T15:02:31.523Z,22.40
2023-05-01T15:05:33.183Z,22.28
2023-05-01T15:08:35.050Z,23.50
2023-05-01T15:11:36.873Z,23.94
2023-05-01T15:14:38.578Z,24.44
2023-05-01T15:17:40.220Z,23.85
2023-05-01T15:20:41.929Z,24.04
2023-05-01T15:23:43.555Z,23.69
2023-05-01T15:26:45.636Z,24.59
2023-05-01T15:29:47.292Z,24.99
2023-05-01T15:32:48.955Z,24.14
2023-05-01T15:35:51.136Z,24.84
2023-05-01T15:38:52.873Z,25.97
2023-05-01T15:41:54.536Z,26.48
2023-05-01T15:44:56.375Z,25.64
2023-05-01T15:47:58.415Z,25.79
2023-05-01T15:51:00.177Z,27.20
2023-05-01T15:54:01.997Z,27.92
2023-05-01T15:57:03.674Z,28.31
2023-05-01T16:00:06.430Z,28.73
2023-05-01T16:03:08.702Z,28.85
2023-05-01T16:06:12.057Z,29.13
2023-05-01T16:09:14.345Z,29.45
2023-05-01T16:12:15.982Z,29.61
2023-05-01T16:15:18.112Z,30.00
2023-05-01T16:18:23.133Z,29.90
2023-05-01T16:21:26.055Z,30.28
2023-05-01T16:24:27.764Z,30.75
2023-05-01T16:27:29.424Z,31.10
2023-05-01T16:30:31.038Z,31.68
2023-05-01T16:33:33.836Z,31.89
2023-05-01T16:36:35.499Z,32.21
2023-05-01T16:39:37.190Z,32.59
2023-05-01T16:42:38.831Z,33.03
2023-05-01T16:45:40.599Z,32.92
2023-05-01T16:48:42.745Z,33.40
2023-05-01T16:51:44.384Z,33.68
2023-05-01T16:54:46.047Z,33.84
2023-05-01T16:57:47.918Z,34.09
2023-05-01T17:00:49.553Z,34.29
2023-05-01T17:03:51.230Z,34.35
2023-05-01T17:06:53.238Z,34.43
2023-05-01T17:09:55.341Z,34.60
2023-05-01T17:12:57.009Z,34.68
2023-05-01T17:15:58.686Z,34.31
2023-05-01T17:19:00.302Z,33.44
2023-05-01T17:22:02.013Z,33.13
2023-05-01T17:25:03.821Z,33.27
2023-05-01T17:28:05.770Z,33.82
2023-05-01T17:31:07.560Z,34.26
2023-05-01T17:34:09.318Z,34.79
2023-05-01T17:37:11.044Z,35.17
2023-05-01T17:40:13.027Z,35.63
2023-05-01T17:43:14.629Z,35.95
2023-05-01T17:46:16.302Z,36.24
2023-05-01T17:49:18.012Z,36.62
2023-05-01T17:52:19.654Z,37.01
2023-05-01T17:55:21.300Z,37.19
2023-05-01T17:58:22.890Z,37.63
2023-05-01T18:01:24.839Z,38.18
2023-05-01T18:04:26.513Z,38.80
2023-05-01T18:07:28.173Z,39.04
2023-05-01T18:10:30.528Z,39.41
2023-05-01T18:13:32.240Z,39.84
2023-05-01T18:16:33.850Z,40.58
2023-05-01T18:19:35.690Z,40.78
2023-05-01T18:22:37.310Z,41.14
2023-05-01T18:25:39.105Z,41.43
2023-05-01T18:28:40.815Z,41.82
2023-05-01T18:31:42.434Z,41.78
2023-05-01T18:34:44.127Z,42.07
2023-05-01T18:37:45.972Z,42.31
2023-05-01T18:40:47.912Z,42.46
2023-05-01T18:43:51.812Z,42.83
2023-05-01T18:46:55.318Z,42.96
2023-05-01T18:49:57.052Z,43.28
2023-05-01T18:52:59.127Z,43.55
2023-05-01T18:56:01.084Z,43.75
2023-05-01T18:59:02.905Z,44.01
2023-05-01T19:02:04.615Z,44.05
2023-05-01T19:05:07.624Z,44.27
2023-05-01T19:08:09.524Z,44.46
2023-05-01T19:11:11.193Z,45.03
2023-05-01T19:14:13.165Z,45.27
2023-05-01T19:17:14.960Z,45.50
2023-05-01T19:20:16.645Z,45.55
2023-05-01T19:23:18.240Z,45.85
2023-05-01T19:26:20.167Z,45.85
2023-05-01T19:29:21.812Z,46.37
2023-05-01T19:32:23.703Z,46.56
2023-05-01T19:35:25.836Z,46.63
2023-05-01T19:38:27.760Z,46.74
2023-05-01T19:41:29.390Z,47.81
2023-05-01T19:44:33.622Z,48.00
2023-05-01T19:47:35.317Z,48.04
2023-05-01T19:50:36.921Z,48.25
2023-05-01T19:53:38.693Z,48.32
2023-05-01T19:56:40.550Z,48.59
2023-05-01T19:59:42.161Z,48.73
2023-05-01T20:02:43.954Z,48.88
2023-05-01T20:05:45.639Z,49.02
2023-05-01T20:08:47.295Z,48.95
2023-05-01T20:11:48.955Z,48.97
2023-05-01T20:14:50.607Z,49.41
2023-05-01T20:17:52.450Z,49.61
2023-05-01T20:20:54.195Z,49.61
2023-05-01T20:23:55.883Z,49.85
2023-05-01T20:26:58.005Z,49.91
2023-05-01T20:29:59.882Z,49.92
2023-05-01T20:33:01.839Z,50.23
2023-05-01T20:36:04.890Z,50.41
2023-05-01T20:39:06.659Z,50.40
2023-05-01T20:42:08.670Z,50.37
2023-05-01T20:45:10.312Z,50.54
2023-05-01T20:48:12.086Z,50.55
2023-05-01T20:51:14.698Z,50.56
2023-05-01T20:54:16.349Z,50.72
2023-05-01T20:57:18.120Z,50.64
2023-05-01T21:00:20.115Z,50.98
2023-05-01T21:03:21.996Z,51.08
2023-05-01T21:06:23.989Z,50.91
2023-05-01T21:09:25.919Z,51.06
2023-05-01T21:12:28.732Z,51.25
2023-05-01T21:15:30.379Z,51.49
2023-05-01T21:18:33.475Z,51.57
2023-05-01T21:21:35.983Z,51.63
2023-05-01T21:24:39.726Z,51.62
2023-05-01T21:27:41.350Z,51.92
2023-05-01T21:30:43.056Z,51.76
2023-05-01T21:33:44.740Z,52.14
2023-05-01T21:36:46.313Z,52.30
2023-05-01T21:39:47.860Z,52.35
2023-05-01T21:42:49.767Z,52.56
2023-05-01T21:45:51.868Z,52.61
2023-05-01T21:48:53.779Z,52.71
2023-05-01T21:51:59.347Z,52.81
2023-05-01T21:55:05.235Z,52.95
2023-05-01T21:58:06.922Z,53.15
2023-05-01T22:01:08.584Z,53.29
2023-05-01T22:04:14.692Z,53.44
2023-05-01T22:07:16.409Z,53.47
2023-05-01T22:10:18.104Z,53.50
2023-05-01T22:13:19.681Z,53.64
2023-05-01T22:16:21.310Z,53.81
2023-05-01T22:19:22.795Z,54.03
2023-05-01T22:22:24.606Z,54.14
2023-05-01T22:25:26.207Z,53.98
2023-05-01T22:28:27.721Z,54.33
2023-05-01T22:31:29.454Z,54.65
2023-05-01T22:34:31.046Z,54.73
2023-05-01T22:37:32.547Z,54.87
2023-05-01T22:40:34.133Z,55.33
2023-05-01T22:43:35.726Z,55.32
2023-05-01T22:46:37.543Z,55.62
2023-05-01T22:49:39.247Z,55.66
2023-05-01T22:52:40.872Z,55.85
2023-05-01T22:55:42.349Z,55.75
2023-05-01T22:58:43.968Z,55.95
2023-05-01T23:01:45.748Z,56.09
2023-05-01T23:04:47.407Z,56.21
2023-05-01T23:07:48.965Z,56.30
2023-05-01T23:10:50.695Z,56.46
2023-05-01T23:13:52.307Z,56.71
2023-05-01T23:16:53.968Z,56.86
2023-05-01T23:19:55.575Z,56.78
2023-05-01T23:22:57.554Z,56.96
2023-05-01T23:25:59.295Z,57.32
2023-05-01T23:29:01.135Z,57.67
2023-05-01T23:32:02.842Z,57.85
2023-05-01T23:35:14.676Z,58.02
2023-05-01T23:38:16.383Z,58.36
2023-05-01T23:41:18.038Z,57.73
2023-05-01T23:44:19.554Z,57.41
2023-05-01T23:47:21.628Z,58.07
2023-05-01T23:50:23.228Z,58.17
2023-05-01T23:53:24.735Z,58.36
2023-05-01T23:56:26.406Z,58.65
2023-05-01T23:59:27.963Z,58.96
